Terminal Aerodrome Forecast
Issued by NWS Wilmington, OH

Current Version | Previous Version | Graphics & Text | Print | Product List | Glossary On
Versions: 1 2 3 4 5 6 7 8 9 10 11 12 13 14 15
000
FTUS41 KILN 152329
TAFCMH
TAF
KCMH 152329Z 1600/1624 31015G24KT P6SM OVC025
     FM160400 32013KT P6SM BKN027
     FM160600 33010KT P6SM BKN035
     FM161300 32008KT P6SM BKN040
     FM162000 32007KT P6SM FEW040=

USA.gov is the U.S. government's official web portal to all federal, state and local government web resources and services.